Time;durP1;ratioP1;P1;durP2;ratioP2;P2;SDS_P1;SDS_P2;PMS_P1;PMS_P2;Temp;Humidity;BMP_temperature;BMP_pressure;BME280_temperature;BME280_humidity;BME280_pressure;Samples;Min_cycle;Max_cycle;Signal;HPM_P1;HPM_P2
2022/05/29 00:01:05;;;;;;;7.32;1.88;;;;;;;11.43;65.68;101205.09;5018212;28;20022;-47
2022/05/29 00:03:30;;;;;;;5.85;1.88;;;;;;;11.43;65.55;101206.97;5019497;28;20108;-46
2022/05/29 00:05:56;;;;;;;4.20;2.28;;;;;;;11.38;65.90;101209.56;5014842;28;20060;-46
2022/05/29 00:08:31;;;;;;;8.63;1.92;;;;;;;11.27;66.42;101219.28;5014695;28;20045;-46
2022/05/29 00:10:58;;;;;;;6.82;2.00;;;;;;;11.35;66.04;101212.75;5016681;28;20067;-47
2022/05/29 00:13:25;;;;;;;3.50;1.98;;;;;;;11.20;66.42;101211.41;5019160;28;20114;-46
2022/05/29 00:15:51;;;;;;;7.65;1.80;;;;;;;11.18;66.67;101205.47;5019715;28;20063;-46
2022/05/29 00:18:17;;;;;;;8.98;2.00;;;;;;;11.18;66.53;101202.78;5022640;28;20033;-46
2022/05/29 00:20:49;;;;;;;5.15;2.08;;;;;;;11.11;67.03;101207.47;5028039;28;20022;-46
2022/05/29 00:23:14;;;;;;;10.88;2.30;;;;;;;11.14;66.74;101198.97;5024312;28;20522;-46
2022/05/29 00:25:42;;;;;;;4.40;1.90;;;;;;;11.10;66.95;101194.31;5018999;28;20100;-46
2022/05/29 00:28:08;;;;;;;7.18;2.78;;;;;;;11.01;67.56;101196.56;5024181;28;20021;-46
2022/05/29 00:30:33;;;;;;;6.28;1.90;;;;;;;11.06;67.44;101193.16;5021900;28;20025;-46
2022/05/29 00:32:59;;;;;;;5.82;1.75;;;;;;;11.04;67.25;101190.72;5023166;28;20037;-46
2022/05/29 00:35:24;;;;;;;8.70;1.80;;;;;;;11.04;67.35;101192.59;5019873;28;20036;-45
2022/05/29 00:37:50;;;;;;;3.92;1.60;;;;;;;10.95;67.59;101200.22;5021250;28;20270;-47
2022/05/29 00:40:33;;;;;;;5.72;2.15;;;;;;;10.89;68.29;101195.78;5023714;28;20383;-46
2022/05/29 00:42:59;;;;;;;7.63;2.30;;;;;;;10.88;67.95;101196.84;5018762;28;20030;-46
2022/05/29 00:45:25;;;;;;;4.65;1.90;;;;;;;10.90;68.22;101197.41;5020105;28;20126;-46
2022/05/29 00:47:52;;;;;;;5.30;2.25;;;;;;;10.87;68.25;101192.53;5021994;28;20251;-47
2022/05/29 00:50:20;;;;;;;6.22;1.77;;;;;;;10.89;67.99;101204.66;5022646;28;20456;-47
2022/05/29 00:52:46;;;;;;;5.63;1.75;;;;;;;10.92;67.87;101195.31;5021316;28;20394;-46
2022/05/29 00:55:23;;;;;;;4.32;2.10;;;;;;;11.03;67.29;101199.81;5021063;28;20458;-45
2022/05/29 00:57:55;;;;;;;7.80;2.22;;;;;;;11.02;67.31;101203.56;5023961;28;20052;-46
2022/05/29 01:00:25;;;;;;;6.00;1.80;;;;;;;11.06;67.20;101203.88;5019562;28;20035;-46
2022/05/29 01:02:52;;;;;;;7.43;2.35;;;;;;;11.09;66.83;101201.53;5020641;28;20044;-46
2022/05/29 01:05:19;;;;;;;8.77;2.10;;;;;;;11.11;66.89;101203.97;5022702;28;20026;-47
2022/05/29 01:07:53;;;;;;;3.33;1.70;;;;;;;11.09;66.97;101198.84;5021009;28;20052;-48
2022/05/29 01:10:19;;;;;;;6.10;1.85;;;;;;;11.08;66.49;101196.41;5020003;28;20120;-46
2022/05/29 01:12:58;;;;;;;5.95;1.85;;;;;;;11.06;66.71;101196.66;5017341;28;20121;-45
2022/05/29 01:15:50;;;;;;;9.40;2.53;;;;;;;11.02;67.09;101200.88;5019137;28;20367;-46
2022/05/29 01:18:28;;;;;;;6.63;1.80;;;;;;;11.07;66.72;101203.63;5024230;28;20033;-46
2022/05/29 01:21:28;;;;;;;6.93;1.80;;;;;;;11.05;66.90;101203.06;5020263;28;20358;-46
2022/05/29 01:24:11;;;;;;;4.70;2.03;;;;;;;11.04;67.16;101197.94;5022352;28;20123;-49
2022/05/29 01:27:10;;;;;;;8.45;2.47;;;;;;;10.87;68.64;101196.03;5020329;28;20034;-46
2022/05/29 01:30:02;;;;;;;7.70;2.75;;;;;;;10.79;68.81;101190.25;5021380;28;20034;-47
2022/05/29 01:32:52;;;;;;;7.63;2.65;;;;;;;10.74;68.71;101188.25;5020836;28;20060;-46
2022/05/29 01:35:33;;;;;;;6.03;2.85;;;;;;;10.62;69.91;101192.06;5017222;28;20520;-46
2022/05/29 01:38:07;;;;;;;5.00;2.28;;;;;;;10.65;69.70;101180.84;5023851;28;20113;-46
2022/05/29 01:40:41;;;;;;;10.68;2.55;;;;;;;10.64;69.96;101182.72;5018014;28;20061;-46
2022/05/29 01:43:22;;;;;;;4.47;2.45;;;;;;;10.61;70.20;101177.84;5018805;28;20060;-45
2022/05/29 01:45:57;;;;;;;5.95;1.92;;;;;;;10.66;70.11;101187.84;5022433;28;20087;-46
2022/05/29 01:48:29;;;;;;;4.80;2.10;;;;;;;10.67;69.93;101178.75;5018206;28;20073;-46
2022/05/29 01:50:59;;;;;;;7.00;2.10;;;;;;;10.64;70.11;101179.22;5020929;28;20034;-46
2022/05/29 01:53:33;;;;;;;8.40;1.88;;;;;;;10.63;70.04;101174.91;5017504;28;20127;-48
2022/05/29 01:56:04;;;;;;;4.95;2.45;;;;;;;10.53;70.25;101170.97;5021963;28;20368;-46
2022/05/29 01:58:40;;;;;;;7.07;2.50;;;;;;;10.57;70.59;101173.97;5019842;28;20483;-46
2022/05/29 02:01:09;;;;;;;6.90;2.20;;;;;;;10.52;70.63;101169.34;5022342;28;20106;-47
2022/05/29 02:03:42;;;;;;;5.53;1.98;;;;;;;10.48;70.80;101176.22;5018659;28;20017;-45
2022/05/29 02:06:17;;;;;;;7.97;1.95;;;;;;;10.50;70.75;101167.97;5024333;28;20029;-45
2022/05/29 02:09:03;;;;;;;5.28;2.28;;;;;;;10.50;71.03;101167.97;5016932;28;20483;-46
2022/05/29 02:11:31;;;;;;;6.68;2.28;;;;;;;10.48;70.80;101162.84;5018679;28;20044;-45
2022/05/29 02:14:04;;;;;;;9.07;2.30;;;;;;;10.50;70.59;101163.41;5019027;28;20037;-45
2022/05/29 02:16:37;;;;;;;13.52;2.40;;;;;;;10.49;70.72;101167.16;5020079;28;20492;-46
2022/05/29 02:19:02;;;;;;;7.88;2.42;;;;;;;10.51;70.50;101170.41;5025727;28;20080;-47
2022/05/29 02:21:44;;;;;;;7.15;2.75;;;;;;;10.46;70.98;101169.50;5018537;28;20057;-46
2022/05/29 02:24:21;;;;;;;7.18;2.28;;;;;;;10.43;71.03;101160.06;5017909;28;20575;-46
2022/05/29 02:27:15;;;;;;;8.20;2.25;;;;;;;10.40;71.32;101160.50;5019445;28;20022;-46
2022/05/29 02:29:42;;;;;;;7.30;2.88;;;;;;;10.44;71.36;101164.38;5016175;28;20041;-45
2022/05/29 02:32:49;;;;;;;7.88;2.35;;;;;;;10.43;71.48;101167.28;5021651;28;20453;-46
2022/05/29 02:35:45;;;;;;;8.88;2.17;;;;;;;10.50;70.93;101163.41;5005950;28;20072;-47
2022/05/29 02:38:29;;;;;;;10.98;2.33;;;;;;;10.55;70.32;101166.19;5018921;28;20025;-45
2022/05/29 02:41:10;;;;;;;6.70;1.95;;;;;;;10.58;70.40;101163.03;5015333;28;20032;-45
2022/05/29 02:43:53;;;;;;;9.55;2.33;;;;;;;10.56;70.08;101164.31;5018964;28;20124;-46
2022/05/29 02:46:43;;;;;;;6.57;2.35;;;;;;;10.52;70.57;101158.63;5018238;28;20029;-46
2022/05/29 02:49:28;;;;;;;8.02;2.20;;;;;;;10.52;70.35;101158.63;5017600;28;21437;-46
2022/05/29 02:51:56;;;;;;;;;;;;;;;10.51;71.08;101154.31;5016522;28;20050;-46
2022/05/29 02:54:25;;;;;;;5.32;2.08;;;;;;;10.57;70.09;101158.72;5018221;28;19919;-46
2022/05/29 02:56:52;;;;;;;6.20;2.63;;;;;;;10.56;70.65;101157.09;5019186;28;20612;-46
2022/05/29 02:59:19;;;;;;;9.65;2.42;;;;;;;10.57;70.39;101157.91;5018100;28;20379;-46
2022/05/29 03:02:15;;;;;;;4.60;2.10;;;;;;;10.57;70.49;101157.91;5016953;28;20431;-46
2022/05/29 03:04:50;;;;;;;4.72;1.90;;;;;;;10.58;70.54;101154.97;5016940;28;20488;-45
2022/05/29 03:07:31;;;;;;;4.80;1.80;;;;;;;10.57;71.03;101160.59;5016438;28;20033;-47
2022/05/29 03:09:59;;;;;;;4.97;2.17;;;;;;;10.50;71.31;101158.06;5020391;28;20022;-46
2022/05/29 03:12:30;;;;;;;4.32;1.90;;;;;;;10.46;72.02;101156.91;5018468;28;20075;-46
2022/05/29 03:15:21;;;;;;;3.80;1.95;;;;;;;10.50;71.57;101154.56;5017082;28;20129;-46
2022/05/29 03:18:25;;;;;;;5.85;2.03;;;;;;;10.48;72.32;101157.47;5023524;28;20388;-46
2022/05/29 03:20:58;;;;;;;8.00;2.00;;;;;;;10.47;72.02;101152.34;5021324;28;20064;-46
2022/05/29 03:23:54;;;;;;;5.10;2.83;;;;;;;10.47;72.23;101155.84;5020344;28;20029;-45
2022/05/29 03:26:40;;;;;;;8.13;2.13;;;;;;;10.45;72.45;101157.97;5019285;28;20036;-47
2022/05/29 03:29:50;;;;;;;5.60;2.03;;;;;;;10.40;73.32;101157.03;5018251;28;20029;-46
2022/05/29 03:32:16;;;;;;;6.53;1.88;;;;;;;10.41;73.09;101156.81;5000343;28;20049;-46
2022/05/29 03:34:41;;;;;;;6.97;1.90;;;;;;;10.41;73.09;101150.63;5016657;28;20414;-45
2022/05/29 03:37:07;;;;;;;5.53;2.08;;;;;;;10.44;73.54;101150.16;5020032;28;20031;-46
2022/05/29 03:39:34;;;;;;;6.25;2.03;;;;;;;10.49;73.15;101151.06;5015873;28;20080;-45
2022/05/29 03:42:00;;;;;;;5.60;2.03;;;;;;;10.51;73.39;101150.81;5018987;28;22575;-46
2022/05/29 03:44:25;;;;;;;7.05;2.13;;;;;;;10.53;73.31;101152.22;5014440;28;20112;-46
2022/05/29 03:46:51;;;;;;;7.32;2.40;;;;;;;10.54;73.24;101158.38;5022553;28;20029;-46
2022/05/29 03:49:19;;;;;;;10.25;2.88;;;;;;;10.58;72.65;101154.97;5018241;28;20029;-45
2022/05/29 03:51:45;;;;;;;6.57;2.17;;;;;;;10.63;72.65;101156.16;5019308;28;20030;-45
2022/05/29 03:54:11;;;;;;;6.05;2.20;;;;;;;10.63;72.68;101156.16;5018037;28;20036;-46
2022/05/29 03:56:38;;;;;;;7.70;2.35;;;;;;;10.64;72.45;101155.91;5023238;28;20088;-45
2022/05/29 03:59:04;;;;;;;4.30;2.33;;;;;;;10.67;72.90;101155.44;5018286;28;20024;-46
2022/05/29 04:01:32;;;;;;;6.60;2.58;;;;;;;10.68;72.94;101166.97;5021624;28;20341;-46
2022/05/29 04:03:58;;;;;;;8.48;2.22;;;;;;;10.67;73.24;101152.75;5012472;28;20068;-45
2022/05/29 04:06:28;;;;;;;4.82;2.28;;;;;;;10.72;73.13;101160.06;5013620;28;20999;-45
2022/05/29 04:14:27;;;;;;;7.53;2.30;;;;;;;10.87;72.33;101152.31;5015567;28;20052;-46
2022/05/29 04:16:52;;;;;;;7.53;2.42;;;;;;;10.91;72.65;101158.84;5016630;28;20029;-45
2022/05/29 04:19:19;;;;;;;5.22;2.42;;;;;;;10.99;72.21;101168.38;5016391;28;20030;-46
2022/05/29 04:21:44;;;;;;;5.85;2.17;;;;;;;11.01;72.46;101169.75;5017961;28;20414;-45
2022/05/29 04:24:10;;;;;;;5.95;2.17;;;;;;;11.05;72.28;101162.84;5016163;28;20033;-48
2022/05/29 04:26:37;;;;;;;5.65;2.35;;;;;;;11.13;72.01;101173.19;5012198;28;20101;-46
2022/05/29 04:29:04;;;;;;;5.78;2.78;;;;;;;11.16;72.35;101167.34;5016521;28;20033;-46
2022/05/29 04:31:32;;;;;;;5.65;2.70;;;;;;;11.18;71.99;101154.50;5016478;28;20368;-46
2022/05/29 04:33:57;;;;;;;7.90;2.42;;;;;;;11.24;72.13;101162.63;5017697;28;20037;-46
2022/05/29 04:36:24;;;;;;;6.55;2.65;;;;;;;11.29;71.86;101162.72;5018692;28;20033;-46
2022/05/29 04:38:50;;;;;;;9.85;2.72;;;;;;;11.34;71.69;101163.63;5015281;28;20084;-46
2022/05/29 04:41:16;;;;;;;6.20;2.28;;;;;;;11.43;71.40;101162.16;5019648;28;20193;-45
2022/05/29 04:43:42;;;;;;;7.15;2.60;;;;;;;11.48;71.98;101158.75;5018731;28;20310;-47
2022/05/29 04:46:07;;;;;;;6.75;2.13;;;;;;;11.57;71.11;101157.28;5018606;28;20525;-45
2022/05/29 04:48:33;;;;;;;5.25;2.30;;;;;;;11.66;71.12;101161.19;5019195;28;20021;-45
2022/05/29 04:51:01;;;;;;;4.97;2.08;;;;;;;11.71;70.61;101165.84;5015945;28;20042;-47
2022/05/29 04:53:28;;;;;;;7.53;2.65;;;;;;;11.73;70.61;101161.84;5018976;28;20478;-45
2022/05/29 04:55:55;;;;;;;6.88;2.55;;;;;;;11.79;70.13;101158.19;5016153;28;20053;-45
2022/05/29 04:58:22;;;;;;;5.28;2.00;;;;;;;11.83;69.72;101158.50;5018245;28;20059;-46
2022/05/29 05:00:48;;;;;;;6.45;2.17;;;;;;;11.88;69.42;101153.22;5016088;28;20025;-46
2022/05/29 05:03:14;;;;;;;6.15;1.98;;;;;;;11.89;69.38;101162.91;5014658;28;20060;-47
2022/05/29 05:05:40;;;;;;;4.43;1.90;;;;;;;11.93;69.23;101155.97;5018682;28;20037;-46
2022/05/29 05:08:05;;;;;;;5.15;2.45;;;;;;;11.92;69.03;101165.09;5019702;28;20095;-46
2022/05/29 05:10:31;;;;;;;4.78;2.20;;;;;;;11.96;68.93;101158.16;5020812;28;20037;-46
2022/05/29 05:12:56;;;;;;;3.63;1.73;;;;;;;11.93;68.98;101155.97;5024414;28;20071;-46
2022/05/29 05:15:22;;;;;;;5.72;2.60;;;;;;;11.90;69.04;101158.34;5020413;28;20037;-45
2022/05/29 05:17:48;;;;;;;6.95;2.10;;;;;;;11.89;68.92;101160.22;5021038;28;20399;-46
2022/05/29 05:20:14;;;;;;;4.65;2.47;;;;;;;11.89;69.00;101162.09;5022054;28;20421;-47
2022/05/29 05:22:40;;;;;;;7.10;2.40;;;;;;;11.89;68.90;101162.91;5021856;28;20048;-46
2022/05/29 05:25:07;;;;;;;7.97;2.53;;;;;;;11.93;68.90;101161.34;5021584;28;20021;-46
2022/05/29 05:27:33;;;;;;;11.50;2.30;;;;;;;11.99;68.99;101162.22;5021028;28;20055;-46
2022/05/29 05:29:58;;;;;;;11.75;2.42;;;;;;;12.00;68.80;101156.59;5023317;28;20041;-45
2022/05/29 05:32:24;;;;;;;8.27;2.33;;;;;;;12.11;68.67;101160.25;5020968;28;20423;-45
2022/05/29 05:34:49;;;;;;;6.57;2.28;;;;;;;12.12;68.69;101161.88;5020628;28;20022;-47
2022/05/29 05:37:16;;;;;;;6.38;2.55;;;;;;;12.15;68.59;101161.38;5024198;28;20029;-46
2022/05/29 05:39:48;;;;;;;5.00;2.10;;;;;;;12.23;68.59;101166.34;5020906;28;20033;-47
2022/05/29 05:42:13;;;;;;;4.13;2.50;;;;;;;12.30;68.24;101166.97;5016807;28;20045;-45
2022/05/29 05:44:39;;;;;;;5.68;2.10;;;;;;;12.39;67.99;101165.47;5022533;28;21267;-45
2022/05/29 05:47:04;;;;;;;7.80;2.30;;;;;;;12.42;67.52;101164.16;5017762;28;20086;-46
2022/05/29 05:49:30;;;;;;;7.97;2.65;;;;;;;12.45;67.17;101171.72;5020946;28;20196;-47
2022/05/29 05:51:58;;;;;;;6.28;2.17;;;;;;;12.42;67.23;101168.72;5020046;28;20483;-46
2022/05/29 05:54:24;;;;;;;8.63;1.98;;;;;;;12.44;66.81;101163.91;5018210;28;20120;-46
2022/05/29 05:56:51;;;;;;;3.72;1.42;;;;;;;12.49;66.92;101169.34;5017306;28;20108;-46
2022/05/29 05:59:17;;;;;;;4.38;2.40;;;;;;;12.53;66.59;101176.66;5016561;28;20021;-47
2022/05/29 06:01:43;;;;;;;5.63;2.10;;;;;;;12.58;66.61;101173.22;5022325;28;20033;-47
2022/05/29 06:04:08;;;;;;;7.95;2.55;;;;;;;12.61;66.21;101160.09;5019137;28;20036;-47
2022/05/29 06:06:34;;;;;;;4.15;2.03;;;;;;;12.65;66.25;101169.28;5021386;28;20037;-46
2022/05/29 06:09:00;;;;;;;3.40;1.88;;;;;;;12.62;66.03;101163.59;5018934;28;20068;-47
2022/05/29 06:11:27;;;;;;;3.80;1.92;;;;;;;12.58;66.18;101165.16;5021385;28;20048;-47
2022/05/29 06:13:53;;;;;;;6.65;2.20;;;;;;;12.62;66.11;101167.09;5017727;28;20024;-46
2022/05/29 06:16:19;;;;;;;8.98;2.13;;;;;;;12.63;66.12;101165.22;5020115;28;20065;-47
2022/05/29 06:18:44;;;;;;;6.13;2.97;;;;;;;12.60;66.07;101169.22;5016968;28;20120;-46
2022/05/29 06:21:10;;;;;;;3.03;1.95;;;;;;;12.56;66.61;101169.94;5019922;28;20500;-48
2022/05/29 06:23:38;;;;;;;4.15;1.48;;;;;;;12.53;66.48;101176.66;5021656;28;20108;-47
2022/05/29 06:26:07;;;;;;;6.47;1.83;;;;;;;12.55;66.62;101168.34;5022464;28;20029;-46
2022/05/29 06:28:33;;;;;;;5.72;2.95;;;;;;;12.58;66.53;101181.28;5021768;28;20541;-48
2022/05/29 06:30:58;;;;;;;3.75;1.90;;;;;;;12.60;66.42;101176.47;5016425;28;20056;-47
2022/05/29 06:33:26;;;;;;;3.67;1.83;;;;;;;12.62;66.33;101179.72;5019122;28;20105;-47
2022/05/29 06:35:54;;;;;;;3.60;1.90;;;;;;;12.65;66.20;101173.84;5017388;28;20037;-47
2022/05/29 06:38:20;;;;;;;3.50;1.80;;;;;;;12.75;65.68;101173.97;5020617;28;20480;-47
2022/05/29 06:40:49;;;;;;;3.28;2.10;;;;;;;12.81;65.61;101175.66;5021145;28;20035;-48
2022/05/29 06:43:15;;;;;;;2.92;1.77;;;;;;;12.93;65.33;101181.69;5018872;28;20676;-46
2022/05/29 06:45:41;;;;;;;5.07;1.98;;;;;;;13.08;64.52;101177.53;5020027;28;20048;-47
2022/05/29 06:48:07;;;;;;;4.35;1.65;;;;;;;13.15;63.68;101173.56;5016267;28;20475;-47
2022/05/29 06:50:32;;;;;;;3.00;1.60;;;;;;;13.15;62.87;101183.53;5016442;28;20018;-47
2022/05/29 06:52:58;;;;;;;3.35;1.52;;;;;;;13.15;62.45;101181.66;5020668;28;20399;-46
2022/05/29 06:55:23;;;;;;;2.40;1.38;;;;;;;13.17;62.02;101186.78;5018074;28;20033;-48
2022/05/29 06:57:48;;;;;;;1.80;1.10;;;;;;;13.21;62.13;101182.53;5019287;28;20026;-46
2022/05/29 07:08:38;;;;;;;2.75;1.70;;;;;;;13.19;62.85;101187.34;5017973;28;20095;-47
2022/05/29 07:11:09;;;;;;;4.63;1.60;;;;;;;13.22;62.45;101184.97;5020668;28;20025;-48
2022/05/29 07:13:36;;;;;;;3.30;1.95;;;;;;;13.22;62.37;101189.53;5017293;28;20018;-47
2022/05/29 07:16:02;;;;;;;4.15;1.50;;;;;;;13.30;62.17;101189.91;5018574;28;20294;-46
2022/05/29 07:18:29;;;;;;;2.88;1.60;;;;;;;13.30;62.10;101181.00;5013403;28;20033;-47
2022/05/29 07:20:57;;;;;;;4.10;1.50;;;;;;;13.32;62.05;101184.25;5017917;28;20452;-47
2022/05/29 07:23:23;;;;;;;7.50;1.98;;;;;;;13.37;62.21;101189.69;5017163;28;20048;-47
2022/05/29 07:25:48;;;;;;;4.30;1.70;;;;;;;13.40;62.23;101196.44;5019307;28;20033;-47
2022/05/29 07:28:14;;;;;;;3.95;2.05;;;;;;;13.40;62.24;101194.53;5018709;28;20048;-47
2022/05/29 07:30:40;;;;;;;6.53;2.05;;;;;;;13.44;61.94;101192.97;5018061;28;20036;-47
2022/05/29 07:33:06;;;;;;;4.38;1.95;;;;;;;13.46;61.94;101180.06;5016253;28;20032;-48
2022/05/29 07:35:31;;;;;;;2.47;1.30;;;;;;;13.47;61.48;101181.69;5018199;28;20064;-47
2022/05/29 07:37:57;;;;;;;5.25;2.00;;;;;;;13.53;61.18;101187.94;5017528;28;20025;-47
2022/05/29 07:40:24;;;;;;;4.78;1.88;;;;;;;13.61;61.04;101180.19;5018854;28;20049;-46
2022/05/29 07:45:34;;;;;;;3.70;1.73;;;;;;;13.74;60.57;101184.31;5018444;28;20044;-46
2022/05/29 07:48:00;;;;;;;5.10;2.00;;;;;;;13.78;60.78;101188.13;5014545;28;20499;-47
2022/05/29 07:50:26;;;;;;;3.03;1.65;;;;;;;13.81;60.51;101190.28;5017269;28;20021;-47
2022/05/29 07:52:54;;;;;;;6.10;1.80;;;;;;;13.69;60.98;101178.09;5017249;28;20037;-46
2022/05/29 07:55:20;;;;;;;5.10;2.00;;;;;;;13.67;61.07;101186.44;5015914;28;20033;-46
2022/05/29 07:57:47;;;;;;;3.95;2.08;;;;;;;13.68;61.11;101187.25;5014337;28;20029;-46
2022/05/29 08:00:15;;;;;;;3.65;1.70;;;;;;;13.71;60.98;101186.72;5014720;28;20013;-47
2022/05/29 08:02:41;;;;;;;6.10;1.77;;;;;;;13.79;60.86;101199.69;5015359;28;20060;-46
2022/05/29 08:05:09;;;;;;;3.35;1.95;;;;;;;13.79;60.72;101194.31;5015636;28;20067;-47
2022/05/29 08:07:35;;;;;;;4.85;1.90;;;;;;;13.78;60.51;101198.06;5018503;28;20056;-47
2022/05/29 08:10:02;;;;;;;3.10;1.45;;;;;;;13.84;60.24;101205.16;5015651;28;20120;-47
2022/05/29 08:12:27;;;;;;;4.68;2.20;;;;;;;13.91;60.19;101203.84;5019276;28;20033;-47
2022/05/29 08:14:53;;;;;;;3.78;1.70;;;;;;;13.93;60.13;101203.56;5016149;28;20395;-48
2022/05/29 08:17:18;;;;;;;2.95;1.63;;;;;;;14.00;59.82;101206.84;5020646;28;20041;-49
2022/05/29 08:19:44;;;;;;;5.03;2.38;;;;;;;14.03;59.80;101205.53;5016565;28;20135;-47
2022/05/29 08:22:09;;;;;;;2.85;1.95;;;;;;;14.08;59.79;101213.66;5018976;28;20041;-47
2022/05/29 08:30:43;;;;;;;5.60;1.77;;;;;;;14.14;58.41;101208.03;5014445;28;20087;-47
2022/05/29 08:33:15;;;;;;;3.08;1.80;;;;;;;14.15;58.44;101209.63;5013451;28;20062;-49
2022/05/29 08:35:45;;;;;;;2.80;1.77;;;;;;;14.21;58.63;101208.63;5012078;28;20033;-47
2022/05/29 08:38:12;;;;;;;5.95;2.10;;;;;;;14.22;58.28;101209.44;5017080;28;20234;-47
2022/05/29 08:40:47;;;;;;;5.68;2.05;;;;;;;14.18;57.79;101211.84;5016828;28;20026;-47
2022/05/29 08:43:17;;;;;;;;;;;;;;;14.12;57.07;101207.47;5019386;28;20099;-47
2022/05/29 08:45:46;;;;;;;3.75;1.80;;;;;;;14.16;57.73;101213.16;5018598;28;19916;-48
2022/05/29 08:48:12;;;;;;;6.53;2.05;;;;;;;14.21;57.60;101211.31;5021903;28;20398;-47
2022/05/29 08:51:00;;;;;;;4.43;2.38;;;;;;;14.18;57.52;101209.16;5019308;28;20026;-47
2022/05/29 08:53:53;;;;;;;4.55;2.08;;;;;;;14.35;57.72;101211.63;5018645;28;20040;-47
2022/05/29 08:56:29;;;;;;;4.00;1.60;;;;;;;14.52;57.18;101203.41;5019284;28;20034;-48
2022/05/29 08:58:55;;;;;;;2.63;1.67;;;;;;;14.67;57.44;101205.34;5017671;28;20029;-48
2022/05/29 09:01:40;;;;;;;4.05;1.92;;;;;;;14.72;56.08;101199.97;5012557;28;20045;-47
2022/05/29 09:04:14;;;;;;;4.90;2.00;;;;;;;14.79;55.97;101211.34;5017711;28;20044;-48
2022/05/29 09:06:47;;;;;;;3.95;2.00;;;;;;;14.75;55.92;101207.56;5019059;28;20090;-46
2022/05/29 09:09:42;;;;;;;4.85;2.00;;;;;;;14.72;56.17;101208.06;5018344;28;20021;-46
2022/05/29 09:12:33;;;;;;;2.77;1.60;;;;;;;14.62;55.87;101206.16;5001984;28;20037;-47
2022/05/29 09:15:06;;;;;;;4.65;1.95;;;;;;;14.68;56.30;101207.78;5014610;28;20033;-47
2022/05/29 09:17:50;;;;;;;4.78;2.00;;;;;;;14.74;55.77;101203.25;5020875;28;20026;-48
2022/05/29 09:20:25;;;;;;;4.22;2.15;;;;;;;14.81;55.70;101207.28;5017991;28;20399;-48
2022/05/29 09:22:50;;;;;;;5.07;1.67;;;;;;;14.91;55.67;101203.84;5021470;28;20291;-47
2022/05/29 09:25:29;;;;;;;7.18;2.10;;;;;;;15.06;55.43;101205.72;5018932;28;20030;-49
2022/05/29 09:27:59;;;;;;;4.63;1.88;;;;;;;15.23;55.20;101208.19;5019024;28;20444;-47
2022/05/29 09:30:25;;;;;;;5.97;2.40;;;;;;;15.30;54.97;101204.19;5016884;28;21408;-47
2022/05/29 09:32:56;;;;;;;8.95;2.28;;;;;;;15.37;54.99;101196.59;5014888;28;20025;-47
2022/05/29 09:35:40;;;;;;;4.10;1.52;;;;;;;15.41;54.36;101199.56;5018507;28;20561;-48
2022/05/29 09:38:14;;;;;;;2.75;1.85;;;;;;;15.47;54.23;101192.31;5018869;28;20092;-48
2022/05/29 09:41:02;;;;;;;3.33;1.98;;;;;;;15.60;53.83;101194.47;5018035;28;20434;-49
2022/05/29 09:43:29;;;;;;;4.55;1.92;;;;;;;15.75;53.83;101197.19;5020696;28;20072;-47
2022/05/29 09:45:54;;;;;;;4.30;2.10;;;;;;;15.74;53.60;101195.56;5019260;28;20033;-47
2022/05/29 09:51:17;;;;;;;4.88;2.05;;;;;;;15.93;52.82;101193.91;5017618;28;20147;-47
2022/05/29 09:53:50;;;;;;;8.25;2.30;;;;;;;16.01;52.14;101193.38;5017228;28;20138;-49
2022/05/29 09:56:28;;;;;;;4.82;2.10;;;;;;;15.85;52.10;101199.88;5017978;28;20043;-48
2022/05/29 09:59:11;;;;;;;3.10;1.85;;;;;;;15.79;52.15;101190.16;5019236;28;20928;-49
2022/05/29 10:01:45;;;;;;;5.20;1.77;;;;;;;15.80;51.89;101185.56;5019763;28;20065;-49
2022/05/29 10:04:15;;;;;;;3.15;1.40;;;;;;;15.77;51.83;101195.00;5019719;28;20030;-48
2022/05/29 10:06:43;;;;;;;5.18;2.15;;;;;;;15.77;51.70;101186.91;5019576;28;20047;-49
2022/05/29 10:09:14;;;;;;;3.60;1.42;;;;;;;15.67;52.05;101193.16;5015039;28;20103;-48
2022/05/29 10:11:41;;;;;;;3.67;1.50;;;;;;;15.47;52.62;101192.31;5020246;28;20029;-48
2022/05/29 10:14:36;;;;;;;4.05;1.70;;;;;;;15.34;52.36;101196.34;5014346;28;20107;-48
2022/05/29 10:17:12;;;;;;;4.78;1.95;;;;;;;15.26;52.95;101195.00;5011905;28;20099;-49
2022/05/29 10:19:46;;;;;;;5.40;1.92;;;;;;;15.30;52.96;101189.88;5020701;28;20057;-49
2022/05/29 10:22:16;;;;;;;7.50;1.70;;;;;;;15.07;53.19;101194.66;5022736;28;20173;-48
2022/05/29 10:24:43;;;;;;;2.78;1.70;;;;;;;14.90;53.00;101193.28;5019146;28;20055;-48
2022/05/29 10:27:22;;;;;;;3.92;1.63;;;;;;;14.78;52.51;101194.34;5021068;28;20025;-48
2022/05/29 10:29:55;;;;;;;4.07;1.30;;;;;;;14.69;52.69;101197.81;5023564;28;20058;-50
2022/05/29 10:32:23;;;;;;;3.60;1.48;;;;;;;14.68;53.40;101186.22;5019803;28;20420;-47
2022/05/29 10:34:50;;;;;;;4.68;1.80;;;;;;;14.73;53.34;101185.44;5019324;28;20091;-48
2022/05/29 10:37:35;;;;;;;7.38;1.80;;;;;;;14.64;53.94;101190.50;5020633;28;20116;-47
2022/05/29 10:40:31;;;;;;;4.43;1.90;;;;;;;14.69;53.70;101193.22;5020221;28;20026;-47
2022/05/29 10:43:03;;;;;;;2.58;1.50;;;;;;;14.70;53.72;101192.13;5011310;28;20033;-46
2022/05/29 10:45:42;;;;;;;3.10;1.40;;;;;;;14.73;53.58;101193.53;5022229;28;20044;-47
2022/05/29 10:48:37;;;;;;;4.43;1.65;;;;;;;14.73;54.07;101183.53;5019124;28;20025;-47
2022/05/29 10:51:26;;;;;;;3.35;1.50;;;;;;;14.71;53.87;101191.06;5018553;28;20030;-47
2022/05/29 10:54:21;;;;;;;5.97;1.80;;;;;;;14.75;54.27;101181.38;5014616;28;20079;-47
2022/05/29 10:57:21;;;;;;;3.05;1.40;;;;;;;14.79;53.94;101178.97;5018370;28;20097;-48
2022/05/29 11:00:18;;;;;;;2.30;1.40;;;;;;;14.78;53.52;101183.56;5015930;28;20061;-48
2022/05/29 11:03:28;;;;;;;3.47;1.60;;;;;;;14.77;53.10;101178.44;5016074;28;21863;-47
2022/05/29 11:06:29;;;;;;;5.93;3.30;;;;;;;14.77;52.69;101184.63;5003495;28;20044;-48
2022/05/29 11:09:32;;;;;;;10.95;6.45;;;;;;;14.73;53.02;101180.03;5019060;28;20675;-46
2022/05/29 11:12:14;;;;;;;6.18;3.35;;;;;;;14.55;53.83;101183.22;5022730;28;20117;-47
2022/05/29 11:14:56;;;;;;;4.53;2.10;;;;;;;14.50;53.62;101183.97;5015380;28;20068;-49
2022/05/29 11:17:40;;;;;;;5.10;1.75;;;;;;;14.55;53.81;101181.31;5013628;28;20033;-50
2022/05/29 11:20:50;;;;;;;4.30;1.70;;;;;;;14.81;54.03;101179.50;5014656;28;20501;-47
2022/05/29 11:23:57;;;;;;;6.10;1.83;;;;;;;14.99;54.16;101191.69;4989352;28;20124;-48
2022/05/29 11:26:49;;;;;;;3.75;1.50;;;;;;;15.01;53.49;101189.53;5023283;28;20040;-49
2022/05/29 11:29:48;;;;;;;6.38;1.88;;;;;;;15.10;53.97;101177.97;4993685;28;20041;-47
2022/05/29 11:32:28;;;;;;;4.13;1.63;;;;;;;15.27;54.02;101180.41;5018078;28;20052;-47
2022/05/29 11:35:07;;;;;;;2.22;1.67;;;;;;;15.33;53.65;101176.63;5016904;28;20030;-48
2022/05/29 11:38:14;;;;;;;3.67;1.75;;;;;;;15.28;53.47;101175.84;5022514;28;20147;-48
2022/05/29 11:40:44;;;;;;;3.80;1.65;;;;;;;15.21;53.63;101184.19;4988456;28;20442;-47
2022/05/29 11:43:49;;;;;;;4.78;1.73;;;;;;;15.09;53.26;101170.94;5018872;28;20029;-48
2022/05/29 11:52:48;;;;;;;2.97;1.40;;;;;;;15.21;52.55;101169.88;4957855;28;20480;-48
2022/05/29 11:55:21;;;;;;;5.43;1.80;;;;;;;15.29;52.11;101170.16;4963146;28;20475;-47
2022/05/29 11:57:58;;;;;;;3.20;1.58;;;;;;;15.08;51.24;101168.50;5001224;28;20525;-47
2022/05/29 12:00:42;;;;;;;4.65;1.90;;;;;;;15.22;51.82;101158.00;5020947;28;20360;-47
2022/05/29 12:03:45;;;;;;;3.75;1.65;;;;;;;15.24;52.13;101167.44;5015813;28;20041;-47
2022/05/29 12:06:13;;;;;;;2.78;1.50;;;;;;;15.10;52.71;101167.16;4972196;28;20041;-47
2022/05/29 12:08:47;;;;;;;5.72;1.92;;;;;;;15.18;52.76;101163.13;5017197;28;20131;-48
2022/05/29 12:11:31;;;;;;;4.18;1.25;;;;;;;15.28;52.41;101168.53;5015204;28;20329;-50
2022/05/29 12:14:20;;;;;;;3.72;1.40;;;;;;;15.22;51.44;101164.19;5014301;28;20057;-48
2022/05/29 12:16:50;;;;;;;2.20;1.10;;;;;;;15.10;49.94;101166.38;5017534;28;20048;-48
2022/05/29 12:19:23;;;;;;;4.22;1.02;;;;;;;15.01;48.21;101159.84;5023152;28;20036;-48
2022/05/29 12:22:04;;;;;;;0.68;0.60;;;;;;;14.90;47.28;101171.69;5020903;28;20033;-47
2022/05/29 12:24:35;;;;;;;2.10;0.70;;;;;;;14.88;48.01;101163.06;5017682;28;20462;-47